createdAt,value
2023-02-11T00:00:59.390Z,77.03
2023-02-11T00:03:28.414Z,77.30
2023-02-11T00:06:01.175Z,77.38
2023-02-11T00:08:29.967Z,77.66
2023-02-11T00:10:58.868Z,77.71
2023-02-11T00:13:30.507Z,77.90
2023-02-11T00:16:10.389Z,78.08
2023-02-11T00:18:45.002Z,78.36
2023-02-11T00:21:18.764Z,78.36
2023-02-11T00:23:50.347Z,78.35
2023-02-11T00:26:24.179Z,78.38
2023-02-11T00:28:53.051Z,78.48
2023-02-11T00:31:22.595Z,78.28
2023-02-11T00:34:02.795Z,78.45
2023-02-11T00:36:37.624Z,78.58
2023-02-11T00:39:09.488Z,78.50
2023-02-11T00:41:39.196Z,78.70
2023-02-11T00:44:10.140Z,78.89
2023-02-11T00:46:38.849Z,79.00
2023-02-11T00:49:07.613Z,79.07
2023-02-11T00:51:40.616Z,78.90
2023-02-11T00:54:09.497Z,78.97
2023-02-11T00:56:41.141Z,79.28
2023-02-11T00:59:09.528Z,79.27
2023-02-11T01:01:43.274Z,79.46
2023-02-11T01:04:12.129Z,79.27
2023-02-11T01:06:41.115Z,79.59
2023-02-11T01:09:10.008Z,79.44
2023-02-11T01:11:41.666Z,79.46
2023-02-11T01:14:12.809Z,79.25
2023-02-11T01:16:41.700Z,79.11
2023-02-11T01:19:12.945Z,79.11
2023-02-11T01:21:48.519Z,79.18
2023-02-11T01:24:24.059Z,79.14
2023-02-11T01:26:56.108Z,79.37
2023-02-11T01:29:34.334Z,79.47
2023-02-11T01:32:03.464Z,79.57
2023-02-11T01:34:41.325Z,79.52
2023-02-11T01:37:10.204Z,79.75
2023-02-11T01:39:41.247Z,79.60
2023-02-11T01:42:15.823Z,79.68
2023-02-11T01:44:51.625Z,79.46
2023-02-11T01:47:23.074Z,79.46
2023-02-11T01:49:59.477Z,79.45
2023-02-11T01:52:33.368Z,79.56
2023-02-11T01:55:27.535Z,79.75
2023-02-11T01:58:01.549Z,79.78
2023-02-11T02:00:38.330Z,79.71
2023-02-11T02:03:27.008Z,79.68
2023-02-11T02:06:17.270Z,79.63
2023-02-11T02:09:22.605Z,79.52
2023-02-11T02:11:51.306Z,79.91
2023-02-11T02:14:29.101Z,79.90
2023-02-11T02:17:02.395Z,80.06
2023-02-11T02:20:09.689Z,80.25
2023-02-11T02:22:54.270Z,80.03
2023-02-11T02:25:33.476Z,79.92
2023-02-11T02:28:22.473Z,80.06
2023-02-11T02:31:09.889Z,80.36
2023-02-11T02:33:46.888Z,80.55
2023-02-11T02:36:21.539Z,80.64
2023-02-11T02:39:18.726Z,80.73
2023-02-11T02:41:47.620Z,80.85
2023-02-11T02:44:19.786Z,80.60
2023-02-11T02:46:48.906Z,81.09
2023-02-11T02:49:19.903Z,81.12
2023-02-11T02:51:54.689Z,81.09
2023-02-11T02:54:26.112Z,81.45
2023-02-11T02:57:30.776Z,81.35
2023-02-11T03:00:24.574Z,81.59
2023-02-11T03:03:24.885Z,81.63
2023-02-11T03:05:57.257Z,81.75
2023-02-11T03:08:28.351Z,81.75
2023-02-11T03:10:59.501Z,81.82
2023-02-11T03:13:33.683Z,81.82
2023-02-11T03:16:27.473Z,81.92
2023-02-11T03:19:22.459Z,82.04
2023-02-11T03:21:52.118Z,81.99
2023-02-11T03:24:37.210Z,81.86
2023-02-11T03:27:16.119Z,82.25
2023-02-11T03:30:01.707Z,82.36
2023-02-11T03:32:41.305Z,82.34
2023-02-11T03:35:36.766Z,82.31
2023-02-11T03:38:20.599Z,82.23
2023-02-11T03:40:51.311Z,82.41
2023-02-11T03:43:29.283Z,82.02
2023-02-11T03:46:00.612Z,82.16
2023-02-11T03:48:36.782Z,82.44
2023-02-11T03:51:09.628Z,82.30
2023-02-11T03:53:42.665Z,82.57
2023-02-11T03:56:13.806Z,82.68
2023-02-11T03:58:47.632Z,82.58
2023-02-11T04:01:19.220Z,82.58
2023-02-11T04:03:48.116Z,82.77
2023-02-11T04:06:19.790Z,82.60
2023-02-11T04:08:51.424Z,82.54
2023-02-11T04:11:25.304Z,82.65
2023-02-11T04:14:13.801Z,82.49
2023-02-11T04:16:47.318Z,82.62
2023-02-11T04:19:18.984Z,82.65
2023-02-11T04:21:47.542Z,82.45
2023-02-11T04:24:19.136Z,82.25
2023-02-11T04:26:47.657Z,82.40
2023-02-11T04:29:16.246Z,82.41
2023-02-11T04:31:47.630Z,82.41
2023-02-11T04:34:17.986Z,82.38
2023-02-11T04:36:51.929Z,82.43
2023-02-11T04:39:23.267Z,82.31
2023-02-11T04:42:02.351Z,82.26
2023-02-11T04:44:36.180Z,82.24
2023-02-11T04:47:04.954Z,82.28
2023-02-11T04:49:33.746Z,82.16
2023-02-11T04:52:05.354Z,82.03
2023-02-11T04:54:36.094Z,82.14
2023-02-11T04:57:04.780Z,82.26
2023-02-11T04:59:57.549Z,82.69
2023-02-11T05:02:32.219Z,82.68
2023-02-11T05:05:01.036Z,82.90
2023-02-11T05:07:30.141Z,83.21
2023-02-11T05:10:01.457Z,83.60
2023-02-11T05:12:30.529Z,83.68
2023-02-11T05:14:59.005Z,83.80
2023-02-11T05:17:27.440Z,84.31
2023-02-11T05:19:56.124Z,84.68
2023-02-11T05:22:24.809Z,84.89
2023-02-11T05:24:53.406Z,85.02
2023-02-11T05:27:21.715Z,85.15
2023-02-11T05:29:50.048Z,85.35
2023-02-11T05:32:22.895Z,85.49
2023-02-11T05:34:51.885Z,85.34
2023-02-11T05:37:20.608Z,85.55
2023-02-11T05:40:02.262Z,85.63
2023-02-11T05:42:33.738Z,85.61
2023-02-11T05:45:04.945Z,85.70
2023-02-11T05:47:46.617Z,85.38
2023-02-11T05:50:15.716Z,85.32
2023-02-11T05:52:54.392Z,85.17
2023-02-11T05:55:44.423Z,85.31
2023-02-11T05:58:19.255Z,85.08
2023-02-11T06:00:48.144Z,84.82
2023-02-11T06:03:22.672Z,84.51
2023-02-11T06:05:51.834Z,84.46
2023-02-11T06:08:23.212Z,84.54
2023-02-11T06:10:55.217Z,84.46
2023-02-11T06:13:26.936Z,84.31
2023-02-11T06:15:57.868Z,84.24
2023-02-11T06:18:29.843Z,83.86
2023-02-11T06:21:09.526Z,83.64
2023-02-11T06:23:46.979Z,83.62
2023-02-11T06:26:23.343Z,83.83
2023-02-11T06:28:55.509Z,83.26
2023-02-11T06:31:24.103Z,82.99
2023-02-11T06:34:03.225Z,82.97
2023-02-11T06:36:53.127Z,82.90
2023-02-11T06:39:35.334Z,82.81
2023-02-11T06:43:31.373Z,82.64
2023-02-11T06:46:30.687Z,82.57
2023-02-11T06:49:55.658Z,82.31
2023-02-11T06:52:23.832Z,81.88
2023-02-11T06:54:55.223Z,82.03
2023-02-11T06:57:23.662Z,81.92
2023-02-11T07:00:33.619Z,81.68
2023-02-11T07:03:11.703Z,81.71
2023-02-11T07:06:25.059Z,81.32
2023-02-11T07:08:57.026Z,81.37
2023-02-11T07:11:49.369Z,81.46
2023-02-11T07:14:18.150Z,81.02
2023-02-11T07:17:15.824Z,80.82
2023-02-11T07:19:53.227Z,80.98
2023-02-11T07:22:56.606Z,80.71
2023-02-11T07:25:45.363Z,80.52
2023-02-11T07:28:22.493Z,80.66
2023-02-11T07:30:51.264Z,80.70
2023-02-11T07:33:20.436Z,80.82
2023-02-11T07:35:49.657Z,80.70
2023-02-11T07:38:38.799Z,80.58
2023-02-11T07:41:09.543Z,80.57
2023-02-11T07:43:41.191Z,80.80
2023-02-11T07:46:12.130Z,81.12
2023-02-11T07:48:40.796Z,81.18
2023-02-11T07:51:25.762Z,81.05
2023-02-11T07:54:01.639Z,80.29
2023-02-11T07:56:30.419Z,80.35
2023-02-11T07:59:03.634Z,79.94
2023-02-11T08:01:33.588Z,79.61
2023-02-11T08:04:02.591Z,79.68
2023-02-11T08:06:33.516Z,79.59
2023-02-11T08:09:12.566Z,79.29
2023-02-11T08:11:53.213Z,78.96
2023-02-11T08:14:21.897Z,78.76
2023-02-11T08:16:56.419Z,77.92
2023-02-11T08:19:27.039Z,77.47
2023-02-11T08:22:01.778Z,77.67
2023-02-11T08:24:37.017Z,77.72
2023-02-11T08:27:29.148Z,77.30
2023-02-11T08:30:03.028Z,77.29
2023-02-11T08:32:32.398Z,77.45
2023-02-11T08:35:03.843Z,77.64
2023-02-11T08:37:34.779Z,77.46
2023-02-11T08:40:03.438Z,77.58
2023-02-11T08:42:37.179Z,77.70
2023-02-11T08:45:19.199Z,77.53
2023-02-11T08:47:53.308Z,77.75
2023-02-11T08:50:27.425Z,77.93
2023-02-11T08:52:56.284Z,78.28
2023-02-11T08:55:30.546Z,78.53
2023-02-11T08:58:19.306Z,78.62
2023-02-11T09:00:57.422Z,78.22
2023-02-11T09:03:36.918Z,78.18
2023-02-11T09:06:07.158Z,78.20
2023-02-11T09:08:37.154Z,78.35
2023-02-11T09:11:06.151Z,78.50
2023-02-11T09:13:34.941Z,78.15
2023-02-11T09:16:05.130Z,77.54
2023-02-11T09:18:33.916Z,77.56
2023-02-11T09:21:08.995Z,77.27
2023-02-11T09:23:37.759Z,77.24
2023-02-11T09:26:14.028Z,77.37
2023-02-11T09:28:42.911Z,76.94
2023-02-11T09:31:15.885Z,76.98
2023-02-11T09:33:48.112Z,76.91
2023-02-11T09:36:38.571Z,77.01
2023-02-11T09:39:29.707Z,77.17
2023-02-11T09:42:32.728Z,77.43
2023-02-11T09:45:35.266Z,77.24
2023-02-11T09:48:13.705Z,77.01
2023-02-11T09:51:42.776Z,76.82
2023-02-11T09:54:29.215Z,77.18
2023-02-11T09:56:57.947Z,77.01
2023-02-11T09:59:33.209Z,76.42
2023-02-11T10:02:26.962Z,76.10
2023-02-11T10:05:28.174Z,75.82
2023-02-11T10:08:33.241Z,75.64
2023-02-11T10:11:19.992Z,75.37
2023-02-11T10:14:16.718Z,75.40
2023-02-11T10:17:08.646Z,75.13
2023-02-11T10:20:17.178Z,75.45
2023-02-11T10:22:58.298Z,75.20
2023-02-11T10:25:45.506Z,75.67
2023-02-11T10:28:25.272Z,75.76
2023-02-11T10:31:06.775Z,75.86
2023-02-11T10:33:59.636Z,76.17
2023-02-11T10:36:57.799Z,76.70
2023-02-11T10:39:45.295Z,76.43
2023-02-11T10:42:14.010Z,76.81
2023-02-11T10:45:32.695Z,76.80
2023-02-11T10:48:07.484Z,76.87
2023-02-11T10:51:14.314Z,77.31
2023-02-11T10:53:59.245Z,77.44
2023-02-11T10:56:28.006Z,77.04
2023-02-11T10:59:56.231Z,77.24
2023-02-11T11:02:34.771Z,76.48
2023-02-11T11:05:07.990Z,76.61
2023-02-11T11:07:43.669Z,76.87
2023-02-11T11:10:34.986Z,77.09
2023-02-11T11:13:24.050Z,77.08
2023-02-11T11:16:23.142Z,77.24
2023-02-11T11:19:13.806Z,77.41
2023-02-11T11:21:52.372Z,77.59
2023-02-11T11:25:01.734Z,77.96
2023-02-11T11:27:48.908Z,78.02
2023-02-11T11:30:18.000Z,78.23
2023-02-11T11:32:56.728Z,77.72
2023-02-11T11:35:30.047Z,77.45
2023-02-11T11:38:06.327Z,77.46
2023-02-11T11:40:36.425Z,77.44
2023-02-11T11:43:23.286Z,76.84
2023-02-11T11:45:59.369Z,75.95
2023-02-11T11:48:40.948Z,75.84
2023-02-11T11:51:11.220Z,76.26
2023-02-11T11:53:55.584Z,76.78
2023-02-11T11:56:32.690Z,77.10
2023-02-11T11:59:18.902Z,77.38
2023-02-11T12:01:54.562Z,78.00
2023-02-11T12:04:33.483Z,78.33
2023-02-11T12:07:36.919Z,78.61
2023-02-11T12:10:15.090Z,78.15
2023-02-11T12:13:09.504Z,78.18
2023-02-11T12:15:54.373Z,77.40
2023-02-11T12:18:47.840Z,77.23
2023-02-11T12:21:54.931Z,77.71
2023-02-11T12:24:52.487Z,77.44
2023-02-11T12:27:45.733Z,77.01
2023-02-11T12:30:39.520Z,77.04
2023-02-11T12:33:23.119Z,77.31
2023-02-11T12:36:27.953Z,76.81
2023-02-11T12:39:16.229Z,76.53
2023-02-11T12:42:06.708Z,76.12
2023-02-11T12:45:11.341Z,76.24
2023-02-11T12:47:41.459Z,76.82
2023-02-11T12:50:32.745Z,77.03
2023-02-11T12:53:13.165Z,76.85
2023-02-11T12:55:48.395Z,76.46
2023-02-11T12:58:35.472Z,76.23
2023-02-11T13:01:39.351Z,75.66
2023-02-11T13:04:33.601Z,75.07
2023-02-11T13:07:12.531Z,75.13
2023-02-11T13:09:54.668Z,75.09
2023-02-11T13:12:44.089Z,74.61
2023-02-11T13:15:15.905Z,74.28
2023-02-11T13:18:31.846Z,73.61
2023-02-11T13:21:27.280Z,73.33
2023-02-11T13:24:44.625Z,72.80
2023-02-11T13:27:41.649Z,73.33
2023-02-11T13:30:30.539Z,72.90
2023-02-11T13:33:17.719Z,72.69
2023-02-11T13:36:08.639Z,72.64
2023-02-11T13:38:39.804Z,72.61
2023-02-11T13:41:29.265Z,72.72
2023-02-11T13:44:02.061Z,73.31
2023-02-11T13:47:07.876Z,73.98
2023-02-11T13:49:50.871Z,74.09
2023-02-11T13:52:56.854Z,74.16
2023-02-11T13:55:26.464Z,74.03
2023-02-11T13:58:27.699Z,74.42
2023-02-11T14:01:06.967Z,74.28
2023-02-11T16:11:09.293Z,72.74
2023-02-11T16:13:46.470Z,69.27
2023-02-11T16:16:19.985Z,69.47
2023-02-11T16:19:04.638Z,69.28
2023-02-11T16:21:39.469Z,68.90
2023-02-11T16:24:18.401Z,68.89
2023-02-11T16:26:49.438Z,68.99
2023-02-11T16:29:23.971Z,69.16
2023-02-11T16:31:53.320Z,69.30
2023-02-11T16:34:25.538Z,69.92
2023-02-11T16:36:57.513Z,69.94
2023-02-11T16:39:26.234Z,70.33
2023-02-11T16:41:55.487Z,70.40
2023-02-11T16:44:24.278Z,70.86
2023-02-11T16:46:53.521Z,71.50
2023-02-11T16:49:33.374Z,71.87
2023-02-11T16:52:13.686Z,71.90
2023-02-11T16:54:45.550Z,71.89
2023-02-11T16:57:22.112Z,71.83
2023-02-11T16:59:50.802Z,71.92
2023-02-11T17:02:41.090Z,72.34
2023-02-11T17:05:20.308Z,72.23
2023-02-11T17:07:53.924Z,71.84
2023-02-11T17:10:25.661Z,71.66
2023-02-11T17:12:56.846Z,71.61
2023-02-11T17:15:25.735Z,71.40
2023-02-11T17:17:58.740Z,71.65
2023-02-11T17:20:27.412Z,71.37
2023-02-11T17:22:55.892Z,71.37
2023-02-11T17:25:25.301Z,71.15
2023-02-11T17:27:57.543Z,70.97
2023-02-11T17:30:29.117Z,70.94
2023-02-11T17:33:00.365Z,70.69
2023-02-11T17:35:29.052Z,70.81
2023-02-11T17:38:03.003Z,70.92
2023-02-11T17:40:32.312Z,70.60
2023-02-11T17:43:00.789Z,70.81
2023-02-11T17:45:30.854Z,70.29
2023-02-11T17:48:09.786Z,70.31
2023-02-11T17:50:51.240Z,70.38
2023-02-11T17:53:20.741Z,70.57
2023-02-11T17:55:49.633Z,70.38
2023-02-11T17:58:19.016Z,70.47
2023-02-11T18:00:48.019Z,70.52
2023-02-11T18:03:16.805Z,70.58
2023-02-11T18:05:46.203Z,70.65
2023-02-11T18:08:14.992Z,71.11
2023-02-11T18:10:47.162Z,71.28
2023-02-11T18:13:16.262Z,71.12
2023-02-11T18:15:50.279Z,71.13
2023-02-11T18:18:21.514Z,71.04
2023-02-11T18:21:13.906Z,71.34
2023-02-11T18:23:50.442Z,72.14
2023-02-11T18:26:20.613Z,72.29
2023-02-11T18:29:12.268Z,72.52
2023-02-11T18:31:48.799Z,72.73
2023-02-11T18:34:23.013Z,72.93
2023-02-11T18:36:51.631Z,73.23
2023-02-11T18:39:24.455Z,73.56
2023-02-11T18:42:05.220Z,73.22
2023-02-11T18:44:56.159Z,73.16
2023-02-11T18:47:27.733Z,73.47
2023-02-11T18:49:56.708Z,73.68
2023-02-11T18:52:24.984Z,74.20
2023-02-11T18:54:56.231Z,74.15
2023-02-11T18:57:27.799Z,74.54
2023-02-11T18:59:57.393Z,75.06
2023-02-11T19:02:29.560Z,75.85
2023-02-11T19:04:57.914Z,76.23
2023-02-11T19:07:26.412Z,76.46
2023-02-11T19:09:54.979Z,76.53
2023-02-11T19:12:33.765Z,76.89
2023-02-11T19:15:07.775Z,77.54
2023-02-11T19:17:37.078Z,77.70
2023-02-11T19:20:16.013Z,77.97
2023-02-11T19:22:53.458Z,78.46
2023-02-11T19:25:24.212Z,79.51
2023-02-11T19:27:53.030Z,80.12
2023-02-11T19:30:21.925Z,80.59
2023-02-11T19:32:52.870Z,80.74
2023-02-11T19:35:21.753Z,81.27
2023-02-11T19:37:53.102Z,81.65
2023-02-11T19:40:29.561Z,81.64
2023-02-11T19:42:59.414Z,81.61
2023-02-11T19:45:31.274Z,82.03
2023-02-11T19:47:59.879Z,82.56
2023-02-11T19:50:31.926Z,82.68
2023-02-11T19:53:21.206Z,83.03
2023-02-11T19:55:57.710Z,83.53
2023-02-11T19:58:29.867Z,83.69
2023-02-11T20:01:24.904Z,83.63
2023-02-11T20:03:54.333Z,83.67
2023-02-11T20:06:34.233Z,83.95
2023-02-11T20:09:10.271Z,83.95
2023-02-11T20:11:39.081Z,83.98
2023-02-11T20:14:12.636Z,83.86
2023-02-11T20:16:48.762Z,84.28
2023-02-11T20:19:21.819Z,84.91
2023-02-11T20:21:56.006Z,84.93
2023-02-11T20:24:25.829Z,85.12
2023-02-11T20:26:57.595Z,85.30
2023-02-11T20:29:33.600Z,85.50
2023-02-11T20:32:03.643Z,85.36
2023-02-11T20:34:32.506Z,85.32
2023-02-11T20:37:04.282Z,85.43
2023-02-11T20:39:37.457Z,85.70
2023-02-11T20:42:11.801Z,85.80
2023-02-11T20:44:40.790Z,86.34
2023-02-11T20:47:11.912Z,86.69
2023-02-11T20:49:41.120Z,87.16
2023-02-11T20:52:09.901Z,87.56
2023-02-11T20:54:45.554Z,87.99
2023-02-11T20:57:14.855Z,88.50
2023-02-11T20:59:46.715Z,88.53
2023-02-11T21:02:16.527Z,88.77
2023-02-11T21:04:45.518Z,89.08
2023-02-11T21:07:14.361Z,89.42
2023-02-11T21:09:43.430Z,89.45
2023-02-11T21:12:14.701Z,89.57
2023-02-11T21:14:46.563Z,89.93
2023-02-11T21:17:18.725Z,90.14
2023-02-11T21:19:47.229Z,90.85
2023-02-11T21:22:24.821Z,90.76
2023-02-11T21:24:57.081Z,91.04
2023-02-11T21:27:37.002Z,91.42
2023-02-11T21:30:07.296Z,91.72
2023-02-11T21:32:35.938Z,91.80
2023-02-11T21:35:24.694Z,92.13
2023-02-11T21:37:56.250Z,92.38
2023-02-11T21:40:29.633Z,92.70
2023-02-11T21:42:57.913Z,92.86
2023-02-11T21:45:26.801Z,93.03
2023-02-11T21:47:55.532Z,93.13
2023-02-11T21:50:27.236Z,93.10
2023-02-11T21:52:56.520Z,93.21
2023-02-11T21:55:25.228Z,93.34
2023-02-11T21:57:53.860Z,93.51
2023-02-11T22:00:22.447Z,93.88
2023-02-11T22:02:50.987Z,93.91
2023-02-11T22:05:40.071Z,94.11
2023-02-11T22:08:09.091Z,94.56
2023-02-11T22:10:39.135Z,94.80
2023-02-11T22:13:08.062Z,95.05
2023-02-11T22:15:36.851Z,95.20
2023-02-11T22:18:25.337Z,95.43
2023-02-11T22:21:02.546Z,95.49
2023-02-11T22:23:34.407Z,96.24
2023-02-11T22:26:07.834Z,96.57
2023-02-11T22:28:43.254Z,97.00
2023-02-11T22:31:22.295Z,97.42
2023-02-11T22:33:58.928Z,97.80
2023-02-11T22:36:35.492Z,98.05
2023-02-11T22:39:14.262Z,98.37
2023-02-11T22:42:14.813Z,98.87
2023-02-11T22:44:46.208Z,99.64
2023-02-11T22:47:55.055Z,99.98
2023-02-11T22:50:44.241Z,100.00
2023-02-11T22:53:29.032Z,100.00
2023-02-11T22:56:16.124Z,100.00
2023-02-11T22:58:50.849Z,100.00
2023-02-11T23:01:36.780Z,100.00
2023-02-11T23:04:15.328Z,100.00
2023-02-11T23:06:50.635Z,100.00
2023-02-11T23:09:21.822Z,100.00
2023-02-11T23:12:04.911Z,100.00
2023-02-11T23:14:36.565Z,100.00
2023-02-11T23:17:08.228Z,100.00
2023-02-11T23:20:08.022Z,100.00
2023-02-11T23:23:20.439Z,100.00
2023-02-11T23:26:19.720Z,100.00
2023-02-11T23:28:53.654Z,100.00
2023-02-11T23:32:27.791Z,100.00
2023-02-11T23:35:23.677Z,100.00
2023-02-11T23:38:11.900Z,100.00
2023-02-11T23:41:08.120Z,100.00
2023-02-11T23:43:50.229Z,100.00
2023-02-11T23:46:54.357Z,100.00
2023-02-11T23:50:11.898Z,100.00
2023-02-11T23:52:56.333Z,100.00
2023-02-11T23:56:12.764Z,100.00
2023-02-11T23:58:46.466Z,100.00
